Time;durP1;ratioP1;P1;durP2;ratioP2;P2;SDS_P1;SDS_P2;PMS_P1;PMS_P2;Temp;Humidity;BMP_temperature;BMP_pressure;BME280_temperature;BME280_humidity;BME280_pressure;Samples;Min_cycle;Max_cycle;Signal;HPM_P1;HPM_P2
2022/10/04 00:01:43;;;;;;;7.87;6.90;;;;;;;;;;4984575;28;20481;-84
2022/10/04 00:04:13;;;;;;;14.57;7.50;;;;;;;;;;4980646;28;20435;-83
2022/10/04 00:06:43;;;;;;;11.65;7.18;;;;;;;;;;4986085;28;20421;-83
2022/10/04 00:09:14;;;;;;;12.90;6.80;;;;;;;;;;4985527;28;20501;-84
2022/10/04 00:11:43;;;;;;;10.65;7.55;;;;;;;;;;4984337;28;21029;-85
2022/10/04 00:14:15;;;;;;;10.30;7.43;;;;;;;;;;5017266;28;20930;-84
2022/10/04 00:16:42;;;;;;;10.70;6.68;;;;;;;;;;4981624;28;20564;-84
2022/10/04 00:19:29;;;;;;;12.57;7.60;;;;;;;;;;4986661;28;20457;-83
2022/10/04 00:22:26;;;;;;;11.48;7.82;;;;;;;;;;4980889;28;20429;-84
2022/10/04 00:25:19;;;;;;;14.67;6.73;;;;;;;;;;4989220;28;20424;-84
2022/10/04 00:28:10;;;;;;;8.27;6.88;;;;;;;;;;4983151;28;20420;-85
2022/10/04 00:30:37;;;;;;;10.07;7.10;;;;;;;;;;4981724;28;20494;-85
2022/10/04 00:33:04;;;;;;;10.30;6.55;;;;;;;;;;4984098;28;20944;-83
2022/10/04 00:35:45;;;;;;;11.40;6.68;;;;;;;;;;4996809;28;20428;-84
2022/10/04 00:38:15;;;;;;;10.23;6.27;;;;;;;;;;4985521;28;20438;-85
2022/10/04 00:40:46;;;;;;;8.13;6.07;;;;;;;;;;4987479;28;20443;-84
2022/10/04 00:43:14;;;;;;;10.90;6.90;;;;;;;;;;5014042;28;20972;-84
2022/10/04 00:45:41;;;;;;;11.63;7.40;;;;;;;;;;4985913;28;20439;-85
2022/10/04 00:48:26;;;;;;;11.18;7.00;;;;;;;;;;4988927;28;20426;-83
2022/10/04 00:50:55;;;;;;;10.30;7.90;;;;;;;;;;4985319;28;20418;-82
2022/10/04 00:53:36;;;;;;;11.07;7.60;;;;;;;;;;4986405;28;20426;-85
2022/10/04 00:56:06;;;;;;;11.02;7.55;;;;;;;;;;4979251;28;20489;-83
2022/10/04 00:58:35;;;;;;;12.35;6.78;;;;;;;;;;4985190;28;20414;-84
2022/10/04 01:01:02;;;;;;;10.30;7.50;;;;;;;;;;4985650;28;20806;-84
2022/10/04 01:03:32;;;;;;;11.05;7.30;;;;;;;;;;4983634;28;20450;-86
2022/10/04 01:06:00;;;;;;;10.95;7.57;;;;;;;;;;4984647;28;20438;-84
2022/10/04 01:08:30;;;;;;;11.20;7.40;;;;;;;;;;4984711;28;20430;-84
2022/10/04 01:10:58;;;;;;;11.77;7.43;;;;;;;;;;4982672;28;20805;-84
2022/10/04 01:13:27;;;;;;;10.95;7.20;;;;;;;;;;4985286;28;20426;-83
2022/10/04 01:15:59;;;;;;;14.65;7.80;;;;;;;;;;4984797;28;20420;-85
2022/10/04 01:18:30;;;;;;;11.95;7.85;;;;;;;;;;4982316;28;20418;-83
2022/10/04 01:20:58;;;;;;;12.40;8.90;;;;;;;;;;4984887;28;20442;-81
2022/10/04 01:23:46;;;;;;;11.73;8.45;;;;;;;;;;4985260;28;20453;-82
2022/10/04 01:26:36;;;;;;;16.48;8.13;;;;;;;;;;4985367;28;20420;-83
2022/10/04 01:29:05;;;;;;;13.60;8.80;;;;;;;;;;4984223;28;20479;-82
2022/10/04 01:31:33;;;;;;;13.95;8.40;;;;;;;;;;4983141;28;20417;-85
2022/10/04 01:34:00;;;;;;;10.07;6.90;;;;;;;;;;4982209;28;20440;-86
2022/10/04 01:36:26;;;;;;;13.90;8.52;;;;;;;;;;4983936;28;20418;-87
2022/10/04 01:38:56;;;;;;;11.77;8.05;;;;;;;;;;4985422;28;20498;-84
2022/10/04 01:41:26;;;;;;;9.68;7.40;;;;;;;;;;4984981;28;20414;-84
2022/10/04 01:43:54;;;;;;;8.85;7.47;;;;;;;;;;4981959;28;20509;-85
2022/10/04 01:46:24;;;;;;;14.00;9.00;;;;;;;;;;5015211;28;20429;-83
2022/10/04 01:48:51;;;;;;;13.90;8.10;;;;;;;;;;4986123;28;20435;-84
2022/10/04 01:51:19;;;;;;;11.63;8.55;;;;;;;;;;5012042;28;20414;-85
2022/10/04 01:53:48;;;;;;;18.80;9.00;;;;;;;;;;4987251;28;20444;-83
2022/10/04 01:56:17;;;;;;;10.15;8.55;;;;;;;;;;4985629;28;20416;-84
2022/10/04 01:58:46;;;;;;;14.18;8.50;;;;;;;;;;5014115;28;20441;-84
2022/10/04 02:01:15;;;;;;;10.20;8.05;;;;;;;;;;4983326;28;20429;-83
2022/10/04 02:03:43;;;;;;;16.05;7.90;;;;;;;;;;4981387;28;20817;-83
2022/10/04 02:06:11;;;;;;;12.43;9.10;;;;;;;;;;4981455;28;20767;-86
2022/10/04 02:08:38;;;;;;;13.37;8.40;;;;;;;;;;4985539;28;20466;-83
2022/10/04 02:11:05;;;;;;;13.88;8.57;;;;;;;;;;4981223;28;20430;-86
2022/10/04 02:13:34;;;;;;;11.40;8.98;;;;;;;;;;4983053;28;20434;-83
2022/10/04 02:16:04;;;;;;;11.13;8.27;;;;;;;;;;4982603;28;20437;-84
2022/10/04 02:18:33;;;;;;;9.93;7.60;;;;;;;;;;4980411;28;20434;-84
2022/10/04 02:21:00;;;;;;;11.90;7.90;;;;;;;;;;4982676;28;20853;-84
2022/10/04 02:23:28;;;;;;;11.27;8.10;;;;;;;;;;5015725;28;20442;-84
2022/10/04 02:25:54;;;;;;;13.55;7.75;;;;;;;;;;4980751;28;20442;-84
2022/10/04 02:28:20;;;;;;;12.07;7.95;;;;;;;;;;4984480;28;20445;-83
2022/10/04 02:32:56;;;;;;;12.30;7.32;;;;;;;;;;4987660;28;20457;-85
2022/10/04 02:33:39;;;;;;;9.15;7.22;;;;;;;;;;5007955;28;20427;-86
2022/10/04 02:36:07;;;;;;;9.60;7.20;;;;;;;;;;4978920;28;20503;-85
2022/10/04 02:38:35;;;;;;;15.23;7.70;;;;;;;;;;4981550;28;20441;-85
2022/10/04 02:41:03;;;;;;;11.73;8.20;;;;;;;;;;5014744;28;20440;-85
2022/10/04 02:43:33;;;;;;;12.48;7.85;;;;;;;;;;4981866;28;20455;-84
2022/10/04 02:46:06;;;;;;;11.20;8.18;;;;;;;;;;4982159;28;20802;-84
2022/10/04 02:48:36;;;;;;;9.43;7.70;;;;;;;;;;4983617;28;20445;-81
2022/10/04 02:51:14;;;;;;;19.23;8.15;;;;;;;;;;4981788;28;20545;-82
2022/10/04 02:53:46;;;;;;;12.25;7.80;;;;;;;;;;4981564;28;20443;-83
2022/10/04 02:56:12;;;;;;;9.68;6.93;;;;;;;;;;4980888;28;20448;-83
2022/10/04 02:58:40;;;;;;;11.07;7.00;;;;;;;;;;4982952;28;20424;-84
2022/10/04 03:01:07;;;;;;;11.05;7.20;;;;;;;;;;4988740;28;20786;-84
2022/10/04 03:03:35;;;;;;;12.00;7.50;;;;;;;;;;4986510;28;20427;-82
2022/10/04 03:06:04;;;;;;;12.13;7.13;;;;;;;;;;4987621;28;20448;-86
2022/10/04 03:08:34;;;;;;;12.40;8.02;;;;;;;;;;4983642;28;20807;-84
2022/10/04 03:11:02;;;;;;;11.88;7.32;;;;;;;;;;4987100;28;20421;-85
2022/10/04 03:13:29;;;;;;;11.60;7.20;;;;;;;;;;4986560;28;20449;-86
2022/10/04 03:15:55;;;;;;;12.93;8.20;;;;;;;;;;4985717;28;20937;-82
2022/10/04 03:18:22;;;;;;;11.85;7.68;;;;;;;;;;5013386;28;20430;-82
2022/10/04 03:20:49;;;;;;;14.45;8.57;;;;;;;;;;5024372;28;20436;-83
2022/10/04 03:23:17;;;;;;;12.32;8.10;;;;;;;;;;4992979;28;20428;-83
2022/10/04 03:25:49;;;;;;;13.60;8.32;;;;;;;;;;4987413;28;20428;-81
2022/10/04 03:28:16;;;;;;;11.73;8.38;;;;;;;;;;4985932;28;20429;-82
2022/10/04 03:30:43;;;;;;;11.55;8.23;;;;;;;;;;4989542;28;20786;-83
2022/10/04 03:33:13;;;;;;;11.35;8.02;;;;;;;;;;4983165;28;20955;-83
2022/10/04 03:35:40;;;;;;;12.02;7.80;;;;;;;;;;4986470;28;20418;-84
2022/10/04 03:38:08;;;;;;;12.90;8.95;;;;;;;;;;4987647;28;20456;-84
2022/10/04 03:40:37;;;;;;;14.15;8.50;;;;;;;;;;4986394;28;20441;-84
2022/10/04 03:43:06;;;;;;;15.73;9.00;;;;;;;;;;4990684;28;20430;-81
2022/10/04 03:45:33;;;;;;;12.68;9.40;;;;;;;;;;4985681;28;20442;-83
2022/10/04 03:48:04;;;;;;;14.40;9.02;;;;;;;;;;4985333;28;20450;-83
2022/10/04 03:50:33;;;;;;;11.63;9.20;;;;;;;;;;4985332;28;20471;-85
2022/10/04 03:53:02;;;;;;;11.43;9.05;;;;;;;;;;4986414;28;20440;-85
2022/10/04 03:55:32;;;;;;;11.93;9.63;;;;;;;;;;4988157;28;20920;-81
2022/10/04 03:57:59;;;;;;;14.82;9.05;;;;;;;;;;5016771;28;20422;-84
2022/10/04 04:00:27;;;;;;;14.27;9.25;;;;;;;;;;5019300;28;20448;-82
2022/10/04 04:02:57;;;;;;;14.63;9.30;;;;;;;;;;4983099;28;20917;-82
2022/10/04 04:05:25;;;;;;;15.52;9.70;;;;;;;;;;4984289;28;20490;-87
2022/10/04 04:07:57;;;;;;;11.93;8.83;;;;;;;;;;4984942;28;20434;-83
2022/10/04 04:10:26;;;;;;;15.65;10.13;;;;;;;;;;4983801;28;20422;-82
2022/10/04 04:12:55;;;;;;;12.60;9.80;;;;;;;;;;4986515;28;20431;-85
2022/10/04 04:15:21;;;;;;;15.68;10.20;;;;;;;;;;5012945;28;20494;-84
2022/10/04 04:17:51;;;;;;;13.60;9.32;;;;;;;;;;4983448;28;20418;-87
2022/10/04 04:20:23;;;;;;;13.57;11.05;;;;;;;;;;4985267;28;20430;-84
2022/10/04 04:22:56;;;;;;;18.67;11.00;;;;;;;;;;4986113;28;20440;-84
2022/10/04 04:25:23;;;;;;;14.50;11.45;;;;;;;;;;4984676;28;20442;-83
2022/10/04 04:27:52;;;;;;;17.92;11.65;;;;;;;;;;4984623;28;20932;-86
2022/10/04 04:30:20;;;;;;;19.25;11.40;;;;;;;;;;4987945;28;20432;-84
2022/10/04 04:32:51;;;;;;;17.40;11.30;;;;;;;;;;4984846;28;20439;-85
2022/10/04 04:35:22;;;;;;;14.50;10.68;;;;;;;;;;4985032;28;20427;-85
2022/10/04 04:38:02;;;;;;;19.63;12.02;;;;;;;;;;4983101;28;20445;-83
2022/10/04 04:40:28;;;;;;;18.08;14.18;;;;;;;;;;4981437;28;21000;-84
2022/10/04 04:42:57;;;;;;;19.00;13.95;;;;;;;;;;4985510;28;20435;-83
2022/10/04 04:45:25;;;;;;;21.90;13.88;;;;;;;;;;5017295;28;20441;-83
2022/10/04 04:47:54;;;;;;;21.55;13.90;;;;;;;;;;4987889;28;20442;-83
2022/10/04 04:50:22;;;;;;;22.15;14.27;;;;;;;;;;4990032;28;20430;-83
2022/10/04 04:52:51;;;;;;;21.63;14.70;;;;;;;;;;4983135;28;20430;-84
2022/10/04 04:55:19;;;;;;;22.37;14.47;;;;;;;;;;4988028;28;20446;-85
2022/10/04 04:57:46;;;;;;;22.93;15.43;;;;;;;;;;4983950;28;20818;-83
2022/10/04 05:00:17;;;;;;;17.63;14.15;;;;;;;;;;4984326;28;20438;-84
2022/10/04 05:02:51;;;;;;;21.85;15.05;;;;;;;;;;4984896;28;20422;-84
2022/10/04 05:05:20;;;;;;;21.50;14.38;;;;;;;;;;4983454;28;20441;-83
2022/10/04 05:07:47;;;;;;;21.15;14.90;;;;;;;;;;4983975;28;20951;-84
2022/10/04 05:10:21;;;;;;;18.45;14.57;;;;;;;;;;4987091;28;20429;-84
2022/10/04 05:12:47;;;;;;;16.83;14.35;;;;;;;;;;4983633;28;20479;-84
2022/10/04 05:15:14;;;;;;;23.00;14.80;;;;;;;;;;5013533;28;20992;-83
2022/10/04 05:17:40;;;;;;;21.35;13.20;;;;;;;;;;4982392;28;20429;-84
2022/10/04 05:20:07;;;;;;;26.00;14.77;;;;;;;;;;4983174;28;20441;-83
2022/10/04 05:22:36;;;;;;;18.00;14.27;;;;;;;;;;4985467;28;20954;-84
2022/10/04 05:25:05;;;;;;;17.15;13.95;;;;;;;;;;4984848;28;20444;-83
2022/10/04 05:27:36;;;;;;;18.20;13.20;;;;;;;;;;5016372;28;20812;-84
2022/10/04 05:30:06;;;;;;;16.20;12.77;;;;;;;;;;4985518;28;20442;-84
2022/10/04 05:32:37;;;;;;;20.92;12.88;;;;;;;;;;4987367;28;20476;-83
2022/10/04 05:35:13;;;;;;;17.60;13.23;;;;;;;;;;4983776;28;20434;-83
2022/10/04 05:37:46;;;;;;;20.25;13.00;;;;;;;;;;4984773;28;20430;-82
2022/10/04 05:40:23;;;;;;;17.15;13.20;;;;;;;;;;4983606;28;20436;-83
2022/10/04 05:42:51;;;;;;;25.65;15.15;;;;;;;;;;4983790;28;20435;-82
2022/10/04 05:45:18;;;;;;;25.17;18.15;;;;;;;;;;4982822;28;20549;-82
2022/10/04 05:47:46;;;;;;;25.73;19.50;;;;;;;;;;4982861;28;20434;-83
2022/10/04 05:50:16;;;;;;;24.50;19.15;;;;;;;;;;4987116;28;20421;-83
2022/10/04 05:52:44;;;;;;;24.73;17.02;;;;;;;;;;4984893;28;20424;-86
2022/10/04 05:55:16;;;;;;;18.60;16.17;;;;;;;;;;4985890;28;20419;-85
2022/10/04 05:57:46;;;;;;;19.92;14.88;;;;;;;;;;4981862;28;20426;-83
2022/10/04 06:00:15;;;;;;;18.70;14.77;;;;;;;;;;4986303;28;20770;-81
2022/10/04 06:02:53;;;;;;;18.50;14.75;;;;;;;;;;4981773;28;20433;-82
2022/10/04 06:05:23;;;;;;;18.90;14.30;;;;;;;;;;4986534;28;20442;-81
2022/10/04 06:07:55;;;;;;;16.35;13.60;;;;;;;;;;4984049;28;20455;-84
2022/10/04 06:10:28;;;;;;;19.85;14.68;;;;;;;;;;4984325;28;20781;-83
2022/10/04 06:12:57;;;;;;;18.33;14.57;;;;;;;;;;4984705;28;21000;-83
2022/10/04 06:15:31;;;;;;;19.03;14.43;;;;;;;;;;4980431;28;20450;-83
2022/10/04 06:18:06;;;;;;;20.63;14.00;;;;;;;;;;4978959;28;20435;-84
2022/10/04 06:20:50;;;;;;;19.33;14.15;;;;;;;;;;4984333;28;20422;-82
2022/10/04 06:23:19;;;;;;;25.52;15.52;;;;;;;;;;4980871;28;20893;-82
2022/10/04 06:25:49;;;;;;;22.20;15.55;;;;;;;;;;4981175;28;20424;-82
2022/10/04 06:28:17;;;;;;;21.30;15.20;;;;;;;;;;4984558;28;20438;-83
2022/10/04 06:30:53;;;;;;;21.05;14.90;;;;;;;;;;4983930;28;20422;-83
2022/10/04 06:33:29;;;;;;;20.15;16.13;;;;;;;;;;4986265;28;20810;-84
2022/10/04 06:36:13;;;;;;;22.40;16.10;;;;;;;;;;4982790;28;20442;-84
2022/10/04 06:38:51;;;;;;;20.48;14.98;;;;;;;;;;4981977;28;20427;-83
2022/10/04 06:41:38;;;;;;;24.73;16.52;;;;;;;;;;4984248;28;20418;-86
2022/10/04 06:44:13;;;;;;;23.57;17.10;;;;;;;;;;4974732;28;20792;-81
2022/10/04 06:46:42;;;;;;;24.67;16.60;;;;;;;;;;4983636;28;20426;-82
2022/10/04 06:49:21;;;;;;;27.50;17.17;;;;;;;;;;4983107;28;20430;-82
2022/10/04 06:52:05;;;;;;;26.02;17.10;;;;;;;;;;4984332;28;20434;-83
2022/10/04 06:54:39;;;;;;;28.77;19.55;;;;;;;;;;4980481;28;20432;-84
2022/10/04 06:57:21;;;;;;;27.85;19.48;;;;;;;;;;4981708;28;20421;-82
2022/10/04 07:00:02;;;;;;;27.52;19.77;;;;;;;;;;4974859;28;20437;-82
2022/10/04 07:02:32;;;;;;;26.98;20.80;;;;;;;;;;4982406;28;20422;-83
2022/10/04 07:05:00;;;;;;;28.45;19.60;;;;;;;;;;4982539;28;20492;-82
2022/10/04 07:07:35;;;;;;;27.83;20.85;;;;;;;;;;4985581;28;20445;-85
2022/10/04 07:10:10;;;;;;;27.30;21.67;;;;;;;;;;4981055;28;20830;-82
2022/10/04 07:12:40;;;;;;;31.10;20.70;;;;;;;;;;5012117;28;21003;-85
2022/10/04 07:15:13;;;;;;;24.05;20.08;;;;;;;;;;4982051;28;20423;-83
2022/10/04 07:17:42;;;;;;;27.38;22.20;;;;;;;;;;4981078;28;20812;-84
2022/10/04 07:20:17;;;;;;;25.02;19.20;;;;;;;;;;4984242;28;20442;-85
2022/10/04 07:22:48;;;;;;;22.63;19.52;;;;;;;;;;4982720;28;20931;-84
2022/10/04 07:25:18;;;;;;;29.23;19.83;;;;;;;;;;4980793;28;20426;-83
2022/10/04 07:27:47;;;;;;;28.30;19.95;;;;;;;;;;4982966;28;20426;-82
2022/10/04 07:30:14;;;;;;;27.23;20.23;;;;;;;;;;4985270;28;20810;-84
2022/10/04 07:32:44;;;;;;;28.70;20.65;;;;;;;;;;4980737;28;20921;-84
2022/10/04 07:35:15;;;;;;;26.90;19.75;;;;;;;;;;4979401;28;20438;-84
2022/10/04 07:37:48;;;;;;;30.13;21.27;;;;;;;;;;4981694;28;20526;-84
2022/10/04 07:40:21;;;;;;;25.90;20.27;;;;;;;;;;4979824;28;20422;-84
2022/10/04 07:42:50;;;;;;;27.80;19.52;;;;;;;;;;4981605;28;20474;-84
2022/10/04 07:45:19;;;;;;;28.27;20.63;;;;;;;;;;4987286;28;20457;-84
2022/10/04 07:47:46;;;;;;;25.33;17.75;;;;;;;;;;4984846;28;20426;-83
2022/10/04 07:50:20;;;;;;;29.33;17.60;;;;;;;;;;4987309;28;20449;-83
2022/10/04 07:52:51;;;;;;;28.13;18.43;;;;;;;;;;4988884;28;20427;-84
2022/10/04 07:55:26;;;;;;;23.65;17.65;;;;;;;;;;4986054;28;20912;-84
2022/10/04 07:57:57;;;;;;;21.88;18.10;;;;;;;;;;4988821;28;20793;-83
2022/10/04 08:00:28;;;;;;;25.95;17.30;;;;;;;;;;4987645;28;20438;-83
2022/10/04 08:03:11;;;;;;;23.20;16.07;;;;;;;;;;4984972;28;20434;-84
2022/10/04 08:05:40;;;;;;;25.73;14.85;;;;;;;;;;5018249;28;20429;-85
2022/10/04 08:08:19;;;;;;;18.83;13.57;;;;;;;;;;4984651;28;20446;-84
2022/10/04 08:10:55;;;;;;;22.08;14.30;;;;;;;;;;4987290;28;20427;-83
2022/10/04 08:13:25;;;;;;;19.45;12.93;;;;;;;;;;4982392;28;20526;-84
2022/10/04 08:15:52;;;;;;;18.02;11.82;;;;;;;;;;4985997;28;20426;-84
2022/10/04 08:18:27;;;;;;;22.88;13.07;;;;;;;;;;5017863;28;20422;-82
2022/10/04 08:20:55;;;;;;;18.20;12.05;;;;;;;;;;4980820;28;20435;-83
2022/10/04 08:23:40;;;;;;;18.13;11.05;;;;;;;;;;4989029;28;20430;-83
2022/10/04 08:26:22;;;;;;;18.60;11.48;;;;;;;;;;4984140;28;20419;-84
2022/10/04 08:31:57;;;;;;;19.45;11.40;;;;;;;;;;4962583;28;20416;-85
2022/10/04 08:34:30;;;;;;;17.10;10.65;;;;;;;;;;4977938;28;20416;-83
2022/10/04 08:37:03;;;;;;;20.70;11.00;;;;;;;;;;4983477;28;21021;-83
2022/10/04 08:39:38;;;;;;;11.75;9.90;;;;;;;;;;4988852;28;20437;-84
2022/10/04 08:42:16;;;;;;;15.40;9.40;;;;;;;;;;4983626;28;20925;-84
2022/10/04 08:45:06;;;;;;;13.27;7.80;;;;;;;;;;4983694;28;20895;-82
2022/10/04 08:47:53;;;;;;;17.85;8.20;;;;;;;;;;4984527;28;20430;-82
2022/10/04 08:50:34;;;;;;;13.30;7.53;;;;;;;;;;4998332;28;20435;-82
2022/10/04 08:53:15;;;;;;;15.23;7.55;;;;;;;;;;4982754;28;20430;-85
2022/10/04 08:55:57;;;;;;;13.60;7.72;;;;;;;;;;4983587;28;20502;-83
2022/10/04 08:58:38;;;;;;;15.00;7.70;;;;;;;;;;4984962;28;21018;-81
2022/10/04 09:01:28;;;;;;;10.25;7.10;;;;;;;;;;4983449;28;20420;-82
2022/10/04 09:04:21;;;;;;;13.75;7.35;;;;;;;;;;4984657;28;20453;-82
2022/10/04 09:06:53;;;;;;;12.02;7.25;;;;;;;;;;4982665;28;20439;-83
2022/10/04 09:09:35;;;;;;;14.45;7.22;;;;;;;;;;4985202;28;20443;-82
2022/10/04 09:12:09;;;;;;;15.98;7.57;;;;;;;;;;4983887;28;20792;-83
2022/10/04 09:14:50;;;;;;;11.30;6.75;;;;;;;;;;5001499;28;20473;-82
2022/10/04 09:17:38;;;;;;;14.27;7.10;;;;;;;;;;4986583;28;20457;-83
2022/10/04 09:20:11;;;;;;;12.60;6.88;;;;;;;;;;4984760;28;20465;-83
2022/10/04 09:22:47;;;;;;;13.52;6.60;;;;;;;;;;4981084;28;20420;-83
2022/10/04 09:25:21;;;;;;;14.35;7.35;;;;;;;;;;4982014;28;20438;-81
2022/10/04 09:27:58;;;;;;;14.80;7.67;;;;;;;;;;4984254;28;21014;-84
2022/10/04 09:30:31;;;;;;;13.68;6.63;;;;;;;;;;4984410;28;20424;-81
2022/10/04 09:33:07;;;;;;;13.52;7.85;;;;;;;;;;4982588;28;20427;-82
2022/10/04 09:35:46;;;;;;;13.23;7.60;;;;;;;;;;4982840;28;20450;-83
2022/10/04 09:38:34;;;;;;;19.42;8.90;;;;;;;;;;4982798;28;20413;-84
2022/10/04 09:41:10;;;;;;;15.10;8.32;;;;;;;;;;4982352;28;20438;-84
2022/10/04 09:43:53;;;;;;;16.05;9.52;;;;;;;;;;4980472;28;20459;-84
2022/10/04 09:46:29;;;;;;;15.43;8.50;;;;;;;;;;4979489;28;20455;-84
2022/10/04 09:49:03;;;;;;;14.02;8.38;;;;;;;;;;4983075;28;20648;-85
2022/10/04 09:51:42;;;;;;;15.57;8.20;;;;;;;;;;4981240;28;20559;-84
2022/10/04 09:54:19;;;;;;;11.68;8.38;;;;;;;;;;4981979;28;20513;-82
2022/10/04 09:57:02;;;;;;;12.57;7.90;;;;;;;;;;4984749;28;20774;-84
2022/10/04 09:59:52;;;;;;;15.00;6.82;;;;;;;;;;4981838;28;20423;-85
2022/10/04 10:02:27;;;;;;;11.67;6.20;;;;;;;;;;4984638;28;20426;-84
2022/10/04 10:05:04;;;;;;;12.23;6.53;;;;;;;;;;4984190;28;20436;-85
2022/10/04 10:07:36;;;;;;;10.50;5.47;;;;;;;;;;4980332;28;20428;-86
2022/10/04 10:15:58;;;;;;;11.80;5.90;;;;;;;;;;4982565;28;20416;-84
2022/10/04 10:18:29;;;;;;;11.82;5.90;;;;;;;;;;4981509;28;20423;-83
2022/10/04 10:21:05;;;;;;;13.60;6.50;;;;;;;;;;4981141;28;20960;-83
2022/10/04 10:23:58;;;;;;;11.20;6.50;;;;;;;;;;4982499;28;20436;-84
2022/10/04 10:26:45;;;;;;;13.93;6.00;;;;;;;;;;4978223;28;20964;-85
2022/10/04 10:29:30;;;;;;;8.63;5.93;;;;;;;;;;4983744;28;20788;-85
2022/10/04 10:32:15;;;;;;;9.60;6.53;;;;;;;;;;4980011;28;20422;-83
2022/10/04 10:34:56;;;;;;;11.10;6.50;;;;;;;;;;4979163;28;20433;-84
2022/10/04 10:37:32;;;;;;;9.40;6.33;;;;;;;;;;4982483;28;20442;-83
2022/10/04 10:40:03;;;;;;;10.35;6.30;;;;;;;;;;4984176;28;20547;-84
2022/10/04 10:42:48;;;;;;;9.38;6.43;;;;;;;;;;4982926;28;20430;-84
2022/10/04 10:45:20;;;;;;;12.10;6.18;;;;;;;;;;4981282;28;20450;-83
2022/10/04 10:47:52;;;;;;;9.40;5.85;;;;;;;;;;4983462;28;21705;-84
2022/10/04 10:50:27;;;;;;;12.35;6.32;;;;;;;;;;4982684;28;20438;-83
2022/10/04 10:53:14;;;;;;;9.83;5.60;;;;;;;;;;4981627;28;20483;-83
2022/10/04 10:55:59;;;;;;;10.15;6.35;;;;;;;;;;4979972;28;20440;-82
2022/10/04 10:58:46;;;;;;;11.27;5.47;;;;;;;;;;4980807;28;20422;-85
2022/10/04 11:01:27;;;;;;;11.98;6.50;;;;;;;;;;4981602;28;20430;-82
2022/10/04 11:04:03;;;;;;;9.13;5.75;;;;;;;;;;4982980;28;20445;-83
2022/10/04 11:06:44;;;;;;;13.00;6.20;;;;;;;;;;4983800;28;20416;-81
2022/10/04 11:09:26;;;;;;;10.18;5.80;;;;;;;;;;4987781;28;20445;-85
2022/10/04 11:12:14;;;;;;;10.67;5.80;;;;;;;;;;4983425;28;20441;-85
2022/10/04 11:14:52;;;;;;;11.07;5.85;;;;;;;;;;4985396;28;20439;-83
2022/10/04 11:17:32;;;;;;;11.52;5.35;;;;;;;;;;4984548;28;20428;-84
2022/10/04 11:20:23;;;;;;;8.93;5.50;;;;;;;;;;4988116;28;20430;-84
2022/10/04 11:23:08;;;;;;;8.75;4.80;;;;;;;;;;4988971;28;20522;-83
2022/10/04 11:26:04;;;;;;;8.65;4.55;;;;;;;;;;4988208;28;20437;-83
2022/10/04 11:28:36;;;;;;;10.25;4.45;;;;;;;;;;4963864;28;20419;-84
2022/10/04 11:31:22;;;;;;;7.65;3.40;;;;;;;;;;4969276;28;20443;-84
2022/10/04 11:34:01;;;;;;;7.35;3.90;;;;;;;;;;4986581;28;20441;-84
2022/10/04 11:36:32;;;;;;;6.68;3.40;;;;;;;;;;4984159;28;20416;-83
2022/10/04 11:39:17;;;;;;;9.68;4.28;;;;;;;;;;4985492;28;20427;-84
2022/10/04 11:41:50;;;;;;;5.55;2.97;;;;;;;;;;4984456;28;20959;-85
2022/10/04 11:44:44;;;;;;;5.78;3.38;;;;;;;;;;4986771;28;20435;-84
2022/10/04 11:47:22;;;;;;;7.82;3.30;;;;;;;;;;4949423;28;20933;-84
2022/10/04 11:53:10;;;;;;;7.90;4.03;;;;;;;;;;4982938;28;20431;-82
2022/10/04 11:55:56;;;;;;;5.25;3.97;;;;;;;;;;4988251;28;20916;-81
2022/10/04 11:58:31;;;;;;;7.60;4.00;;;;;;;;;;4990659;28;20424;-87
2022/10/04 12:01:13;;;;;;;8.45;4.20;;;;;;;;;;4984278;28;20422;-83
2022/10/04 12:03:47;;;;;;;6.00;3.40;;;;;;;;;;4985963;28;20447;-82
2022/10/04 12:06:36;;;;;;;6.32;3.67;;;;;;;;;;4988538;28;20412;-84
2022/10/04 12:09:08;;;;;;;6.80;4.10;;;;;;;;;;4986742;28;20446;-83
2022/10/04 12:14:32;;;;;;;5.97;3.40;;;;;;;;;;4985628;28;20423;-84
2022/10/04 12:17:19;;;;;;;8.63;4.15;;;;;;;;;;4984702;28;20431;-82
2022/10/04 12:22:59;;;;;;;7.75;3.88;;;;;;;;;;5079793;27;20385;-83
2022/10/04 12:25:42;;;;;;;9.80;4.47;;;;;;;;;;5077132;28;20474;-83
2022/10/04 12:28:24;;;;;;;9.25;4.18;;;;;;;;;;5074976;27;20435;-82
2022/10/04 12:31:06;;;;;;;7.75;3.80;;;;;;;;;;5075988;28;20881;-81
2022/10/04 12:33:35;;;;;;;9.80;4.30;;;;;;;;;;5076924;28;20454;-83
2022/10/04 12:36:06;;;;;;;7.03;3.80;;;;;;;;;;5084827;28;20924;-82
2022/10/04 12:38:49;;;;;;;7.85;3.95;;;;;;;;;;5088542;28;20415;-84
2022/10/04 12:41:24;;;;;;;9.68;4.75;;;;;;;;;;5085523;28;20468;-83
2022/10/04 12:43:55;;;;;;;6.25;3.95;;;;;;;;;;5087539;28;20419;-84
2022/10/04 12:46:28;;;;;;;7.25;3.97;;;;;;;;;;5082184;28;20472;-82
2022/10/04 12:49:02;;;;;;;7.00;3.80;;;;;;;;;;5086639;28;21151;-84
2022/10/04 12:51:35;;;;;;;7.90;4.13;;;;;;;;;;5084680;28;20415;-83
2022/10/04 12:54:07;;;;;;;7.55;3.97;;;;;;;;;;5082544;28;20423;-83
2022/10/04 12:56:47;;;;;;;6.90;4.60;;;;;;;;;;5081208;28;20414;-83
2022/10/04 12:59:24;;;;;;;10.60;5.50;;;;;;;;;;5086168;28;20462;-82
2022/10/04 13:01:56;;;;;;;10.20;4.70;;;;;;;;;;5085092;28;20419;-81
2022/10/04 13:04:26;;;;;;;11.18;4.72;;;;;;;;;;5080515;28;20529;-83
2022/10/04 13:07:00;;;;;;;7.55;4.60;;;;;;;;;;5085356;28;20418;-84
2022/10/04 13:09:35;;;;;;;7.72;4.30;;;;;;;;;;5085132;28;20418;-83
2022/10/04 13:12:10;;;;;;;6.20;4.30;;;;;;;;;;5083433;28;20423;-85
2022/10/04 13:14:43;;;;;;;8.73;4.60;;;;;;;;;;5084395;28;20419;-83
2022/10/04 13:17:15;;;;;;;7.40;4.25;;;;;;;;;;5082962;28;20426;-82
2022/10/04 13:19:49;;;;;;;8.90;4.30;;;;;;;;;;5084983;28;20415;-83
2022/10/04 13:22:36;;;;;;;7.07;4.43;;;;;;;;;;5101334;28;20422;-85
2022/10/04 13:25:14;;;;;;;11.93;4.30;;;;;;;;;;5103291;28;20807;-81
2022/10/04 13:27:46;;;;;;;15.20;4.80;;;;;;;;;;5103575;28;20421;-83
2022/10/04 13:30:16;;;;;;;9.32;4.28;;;;;;;;;;5103696;28;20465;-83
2022/10/04 13:32:45;;;;;;;10.20;4.65;;;;;;;;;;5097813;28;20420;-86
2022/10/04 13:35:14;;;;;;;9.60;4.67;;;;;;;;;;5090475;28;20410;-82
2022/10/04 13:37:44;;;;;;;9.00;4.70;;;;;;;;;;5087139;28;20434;-82
2022/10/04 13:40:20;;;;;;;10.05;4.22;;;;;;;;;;5091849;28;21025;-82
2022/10/04 13:42:56;;;;;;;6.43;4.07;;;;;;;;;;5091479;28;20417;-83
2022/10/04 13:45:35;;;;;;;9.32;4.03;;;;;;;;;;5088658;28;20914;-84
2022/10/04 13:48:19;;;;;;;8.00;4.60;;;;;;;;;;5085261;28;20482;-82
2022/10/04 13:51:00;;;;;;;6.70;3.92;;;;;;;;;;5047711;28;20489;-82
2022/10/04 13:56:38;;;;;;;8.10;3.60;;;;;;;;;;5089183;28;20533;-81
2022/10/04 13:59:13;;;;;;;6.80;4.07;;;;;;;;;;5089667;28;20456;-82
2022/10/04 14:02:09;;;;;;;5.85;3.80;;;;;;;;;;5088187;28;20419;-83
2022/10/04 14:04:42;;;;;;;8.77;3.70;;;;;;;;;;5034976;28;20437;-83
2022/10/04 14:07:19;;;;;;;10.23;4.85;;;;;;;;;;5090092;28;20414;-83
2022/10/04 14:09:54;;;;;;;9.73;5.10;;;;;;;;;;5090404;28;20434;-84
2022/10/04 14:12:55;;;;;;;6.82;4.40;;;;;;;;;;5089809;28;20787;-83
2022/10/04 14:15:29;;;;;;;6.75;4.20;;;;;;;;;;5092162;28;20915;-82
2022/10/04 14:18:28;;;;;;;6.28;3.80;;;;;;;;;;5092058;27;20410;-83
2022/10/04 14:21:10;;;;;;;6.35;4.40;;;;;;;;;;5085340;28;20430;-82
2022/10/04 14:23:53;;;;;;;7.90;3.60;;;;;;;;;;5093002;28;20430;-81
2022/10/04 14:26:33;;;;;;;6.30;3.42;;;;;;;;;;5087002;28;20415;-83
2022/10/04 14:29:16;;;;;;;8.73;4.43;;;;;;;;;;5091428;28;20937;-84
2022/10/04 14:31:56;;;;;;;5.67;3.70;;;;;;;;;;5089645;28;20410;-82
2022/10/04 14:34:57;;;;;;;7.00;3.70;;;;;;;;;;5090287;28;20467;-83
2022/10/04 14:37:41;;;;;;;7.38;3.60;;;;;;;;;;5027401;28;20450;-83
2022/10/04 14:40:15;;;;;;;9.07;4.00;;;;;;;;;;5027645;28;20434;-82
2022/10/04 14:43:00;;;;;;;8.88;4.15;;;;;;;;;;5049992;28;20430;-83
2022/10/04 14:45:37;;;;;;;4.97;3.70;;;;;;;;;;5056483;28;20424;-84
2022/10/04 14:51:28;;;;;;;10.13;4.43;;;;;;;;;;5090337;27;20496;-83
2022/10/04 14:54:00;;;;;;;5.55;3.85;;;;;;;;;;5029605;28;20431;-83
2022/10/04 14:56:42;;;;;;;5.75;2.92;;;;;;;;;;5055612;28;20440;-84
2022/10/04 14:59:18;;;;;;;6.95;3.55;;;;;;;;;;5057923;28;20418;-82
2022/10/04 15:01:49;;;;;;;4.97;3.40;;;;;;;;;;5055003;28;20916;-84
2022/10/04 15:04:27;;;;;;;4.82;3.17;;;;;;;;;;5056062;28;20439;-83
2022/10/04 15:06:57;;;;;;;8.20;3.50;;;;;;;;;;5056280;28;20421;-84
2022/10/04 15:09:47;;;;;;;6.18;3.75;;;;;;;;;;5058598;28;20431;-82
2022/10/04 15:12:23;;;;;;;4.13;3.50;;;;;;;;;;5055176;28;20416;-83
2022/10/04 15:15:10;;;;;;;8.48;3.40;;;;;;;;;;5059086;28;20450;-82
2022/10/04 15:17:40;;;;;;;6.40;3.58;;;;;;;;;;5056779;28;20983;-82
2022/10/04 15:20:18;;;;;;;6.88;3.80;;;;;;;;;;5056940;28;20411;-81
2022/10/04 15:22:47;;;;;;;6.07;3.40;;;;;;;;;;5056504;28;20790;-82
2022/10/04 15:25:32;;;;;;;6.57;3.65;;;;;;;;;;5057075;28;20425;-83
2022/10/04 15:28:04;;;;;;;6.78;3.70;;;;;;;;;;5059203;28;20423;-81
2022/10/04 15:30:34;;;;;;;7.35;3.85;;;;;;;;;;5056926;28;20438;-84
2022/10/04 15:33:17;;;;;;;5.55;3.58;;;;;;;;;;5055365;28;20519;-83
2022/10/04 15:35:49;;;;;;;6.00;3.53;;;;;;;;;;5054212;28;20796;-82
2022/10/04 15:38:21;;;;;;;8.02;3.65;;;;;;;;;;5056456;28;20423;-85